Terminal Aerodrome Forecast
Issued by NWS Twin Cities, MN

Home | Current Version | Previous Version | Text Only | Print | Product List | Glossary On
Versions: 1 2 3 4 5 6 7 8 9 10 11 12 13 14 15
000
FTUS43 KMPX 302337
TAFEAU
TAF
KEAU 302337Z 0100/0124 04005KT P6SM OVC050
     FM010700 07004KT 5SM BR SCT015 OVC025
     FM011400 06006KT P6SM SCT015 BKN025=

USA.gov is the U.S. government's official web portal to all federal, state and local government web resources and services.